Time;durP1;ratioP1;P1;durP2;ratioP2;P2;SDS_P1;SDS_P2;PMS_P1;PMS_P2;Temp;Humidity;BMP_temperature;BMP_pressure;BME280_temperature;BME280_humidity;BME280_pressure;Samples;Min_cycle;Max_cycle;Signal;HPM_P1;HPM_P2
2021/06/14 00:00:32;;;;;;;8.38;4.97;;;;;;;;;;5097900;28;20031;-74
2021/06/14 00:02:58;;;;;;;6.93;4.43;;;;;;;;;;5097522;28;20032;-75
2021/06/14 00:05:32;;;;;;;6.18;3.10;;;;;;;;;;5097821;28;20028;-75
2021/06/14 00:07:59;;;;;;;6.03;4.00;;;;;;;;;;5097822;28;20386;-74
2021/06/14 00:10:26;;;;;;;7.00;4.78;;;;;;;;;;5097865;28;20103;-74
2021/06/14 00:12:52;;;;;;;6.10;4.10;;;;;;;;;;5097330;28;20032;-74
2021/06/14 00:15:18;;;;;;;5.13;4.10;;;;;;;;;;5097736;28;20103;-75
2021/06/14 00:17:44;;;;;;;7.90;3.75;;;;;;;;;;5097357;28;20031;-74
2021/06/14 00:20:11;;;;;;;6.35;3.90;;;;;;;;;;5097258;28;20053;-74
2021/06/14 00:22:37;;;;;;;5.63;3.13;;;;;;;;;;5097471;28;20043;-75
2021/06/14 00:25:05;;;;;;;8.75;3.50;;;;;;;;;;5097420;28;20031;-74
2021/06/14 00:27:31;;;;;;;8.27;3.95;;;;;;;;;;5097260;28;20469;-75
2021/06/14 00:29:57;;;;;;;3.90;3.22;;;;;;;;;;5097374;28;20032;-74
2021/06/14 00:32:23;;;;;;;4.53;3.58;;;;;;;;;;5097514;28;20106;-75
2021/06/14 00:34:49;;;;;;;6.53;3.45;;;;;;;;;;5096503;28;20382;-75
2021/06/14 00:37:15;;;;;;;5.55;3.38;;;;;;;;;;5097197;28;20373;-74
2021/06/14 00:39:41;;;;;;;7.43;3.72;;;;;;;;;;5097610;28;20073;-74
2021/06/14 00:42:07;;;;;;;4.93;3.65;;;;;;;;;;5096745;28;20058;-74
2021/06/14 00:44:33;;;;;;;6.05;3.80;;;;;;;;;;5096998;28;20024;-74
2021/06/14 00:46:59;;;;;;;9.82;3.75;;;;;;;;;;5096646;28;20081;-74
2021/06/14 00:49:25;;;;;;;6.05;3.50;;;;;;;;;;5096677;28;20024;-74
2021/06/14 00:51:51;;;;;;;4.32;3.25;;;;;;;;;;5097387;28;20047;-74
2021/06/14 00:54:17;;;;;;;6.13;3.47;;;;;;;;;;5095745;28;20022;-74
2021/06/14 00:56:44;;;;;;;10.05;4.13;;;;;;;;;;5096651;28;20032;-74
2021/06/14 00:59:10;;;;;;;6.90;4.10;;;;;;;;;;5096581;28;20416;-74
2021/06/14 01:01:36;;;;;;;6.32;2.95;;;;;;;;;;5096714;28;20032;-74
2021/06/14 01:04:02;;;;;;;4.75;3.75;;;;;;;;;;5096266;28;20367;-74
2021/06/14 01:06:28;;;;;;;6.50;3.40;;;;;;;;;;5096532;28;20152;-74
2021/06/14 01:08:54;;;;;;;6.25;4.18;;;;;;;;;;5096385;28;20031;-74
2021/06/14 01:11:41;;;;;;;3.80;2.75;;;;;;;;;;5096562;28;20069;-74
2021/06/14 01:14:09;;;;;;;5.18;3.05;;;;;;;;;;5081298;28;20024;-74
2021/06/14 01:16:55;;;;;;;6.28;3.65;;;;;;;;;;5096064;28;20020;-80
2021/06/14 01:19:41;;;;;;;4.20;3.13;;;;;;;;;;5081918;28;20024;-74
2021/06/14 01:22:27;;;;;;;4.60;3.78;;;;;;;;;;5081504;28;20462;-75
2021/06/14 01:25:10;;;;;;;4.70;3.58;;;;;;;;;;5081125;28;20032;-74
2021/06/14 01:27:38;;;;;;;4.60;2.72;;;;;;;;;;5096599;28;20028;-74
2021/06/14 01:30:06;;;;;;;4.88;3.55;;;;;;;;;;5096191;28;20039;-74
2021/06/14 01:32:32;;;;;;;5.75;4.00;;;;;;;;;;5096429;28;20047;-74
2021/06/14 01:34:58;;;;;;;4.50;2.78;;;;;;;;;;5095862;28;20026;-73
2021/06/14 01:37:24;;;;;;;6.10;3.58;;;;;;;;;;5095705;28;20107;-75
2021/06/14 01:39:50;;;;;;;16.92;3.03;;;;;;;;;;5096133;28;20024;-74
2021/06/14 01:42:16;;;;;;;5.20;3.53;;;;;;;;;;5095949;28;20036;-74
2021/06/14 01:44:43;;;;;;;3.88;2.88;;;;;;;;;;5095561;28;20069;-74
2021/06/14 01:47:09;;;;;;;4.97;2.95;;;;;;;;;;5096216;28;20028;-74
2021/06/14 01:49:35;;;;;;;5.93;3.30;;;;;;;;;;5095896;28;20024;-74
2021/06/14 01:52:01;;;;;;;7.85;3.05;;;;;;;;;;5095102;28;20378;-74
2021/06/14 01:54:27;;;;;;;6.25;3.58;;;;;;;;;;5095696;28;20028;-74
2021/06/14 01:56:53;;;;;;;5.82;3.20;;;;;;;;;;5095578;28;20028;-74
2021/06/14 01:59:20;;;;;;;5.65;3.53;;;;;;;;;;5095545;28;20103;-74
2021/06/14 02:01:46;;;;;;;5.15;3.13;;;;;;;;;;5095371;28;20056;-74
2021/06/14 02:04:12;;;;;;;5.35;3.33;;;;;;;;;;5095343;28;20434;-74
2021/06/14 02:06:40;;;;;;;5.28;3.55;;;;;;;;;;5094974;28;20343;-74
2021/06/14 02:09:10;;;;;;;5.18;3.60;;;;;;;;;;5096159;28;20024;-74
2021/06/14 02:11:36;;;;;;;5.32;3.65;;;;;;;;;;5095543;28;20028;-75
2021/06/14 02:14:03;;;;;;;6.70;4.22;;;;;;;;;;5095464;28;20052;-74
2021/06/14 02:16:29;;;;;;;13.43;4.30;;;;;;;;;;5095319;28;20496;-74
2021/06/14 02:18:55;;;;;;;3.72;2.53;;;;;;;;;;5094936;28;20040;-74
2021/06/14 02:21:22;;;;;;;5.88;3.33;;;;;;;;;;5094785;28;20465;-74
2021/06/14 02:23:48;;;;;;;6.60;3.85;;;;;;;;;;5095558;28;20082;-74
2021/06/14 02:26:14;;;;;;;6.47;3.47;;;;;;;;;;5095115;28;20032;-74
2021/06/14 02:28:40;;;;;;;9.43;3.58;;;;;;;;;;5094788;28;20474;-74
2021/06/14 02:31:06;;;;;;;4.93;3.08;;;;;;;;;;5095526;28;20024;-74
2021/06/14 02:33:32;;;;;;;5.95;3.28;;;;;;;;;;5095125;28;20024;-74
2021/06/14 02:35:59;;;;;;;5.35;3.70;;;;;;;;;;5094778;28;20024;-74
2021/06/14 02:38:25;;;;;;;5.80;3.50;;;;;;;;;;5095070;28;20069;-74
2021/06/14 02:40:51;;;;;;;4.80;3.28;;;;;;;;;;5094538;28;20028;-74
2021/06/14 02:43:17;;;;;;;6.47;3.35;;;;;;;;;;5095149;28;20107;-74
2021/06/14 02:45:43;;;;;;;4.65;4.25;;;;;;;;;;5094478;28;20503;-74
2021/06/14 02:48:10;;;;;;;8.40;4.03;;;;;;;;;;5094865;28;20032;-74
2021/06/14 02:50:36;;;;;;;4.05;3.05;;;;;;;;;;5093792;28;20056;-75
2021/06/14 02:53:03;;;;;;;4.63;3.28;;;;;;;;;;5094461;28;20535;-74
2021/06/14 02:55:29;;;;;;;8.45;4.13;;;;;;;;;;5094770;28;20032;-74
2021/06/14 02:57:56;;;;;;;5.57;4.00;;;;;;;;;;5094647;28;20031;-74
2021/06/14 03:00:24;;;;;;;6.40;3.47;;;;;;;;;;5094529;28;20092;-74
2021/06/14 03:02:50;;;;;;;6.65;3.85;;;;;;;;;;5094121;28;20032;-74
2021/06/14 03:05:16;;;;;;;5.18;3.88;;;;;;;;;;5094349;28;20031;-74
2021/06/14 03:07:42;;;;;;;5.72;2.88;;;;;;;;;;5094373;28;20522;-74
2021/06/14 03:10:08;;;;;;;6.47;3.25;;;;;;;;;;5094630;28;20114;-74
2021/06/14 03:12:34;;;;;;;4.47;3.60;;;;;;;;;;5094502;28;20032;-74
2021/06/14 03:15:02;;;;;;;6.25;4.18;;;;;;;;;;5094466;28;20034;-73
2021/06/14 03:17:29;;;;;;;5.60;3.35;;;;;;;;;;5093840;28;20020;-73
2021/06/14 03:19:55;;;;;;;7.50;4.50;;;;;;;;;;5093868;28;20107;-73
2021/06/14 03:22:21;;;;;;;9.13;4.20;;;;;;;;;;5094509;28;20082;-73
2021/06/14 03:24:47;;;;;;;5.65;3.47;;;;;;;;;;5094150;28;20373;-73
2021/06/14 03:27:15;;;;;;;3.78;3.13;;;;;;;;;;5094632;28;20028;-73
2021/06/14 03:29:41;;;;;;;5.35;3.83;;;;;;;;;;5094183;28;20024;-73
2021/06/14 03:32:08;;;;;;;6.63;3.95;;;;;;;;;;5094104;28;20028;-73
2021/06/14 03:34:34;;;;;;;10.15;4.88;;;;;;;;;;5093723;28;20484;-73
2021/06/14 03:37:00;;;;;;;10.23;3.92;;;;;;;;;;5093741;28;20378;-73
2021/06/14 03:39:27;;;;;;;9.30;3.75;;;;;;;;;;5094417;28;20028;-73
2021/06/14 03:41:53;;;;;;;5.63;3.92;;;;;;;;;;5094057;28;20020;-73
2021/06/14 03:44:20;;;;;;;5.93;3.85;;;;;;;;;;5094075;28;20033;-73
2021/06/14 03:46:46;;;;;;;4.90;3.83;;;;;;;;;;5093861;28;20412;-73
2021/06/14 03:49:12;;;;;;;5.88;4.25;;;;;;;;;;5093896;28;20457;-73
2021/06/14 03:51:38;;;;;;;8.77;4.10;;;;;;;;;;5094574;28;20469;-73
2021/06/14 03:54:04;;;;;;;7.03;4.68;;;;;;;;;;5094443;28;20449;-74
2021/06/14 03:56:31;;;;;;;9.70;4.75;;;;;;;;;;5093582;28;20473;-73
2021/06/14 03:58:57;;;;;;;5.55;3.92;;;;;;;;;;5093822;28;20461;-73
2021/06/14 04:01:23;;;;;;;6.13;4.78;;;;;;;;;;5093741;28;20400;-73
2021/06/14 04:06:35;;;;;;;6.28;4.15;;;;;;;;;;5078871;28;20130;-77
2021/06/14 04:09:02;;;;;;;6.90;3.92;;;;;;;;;;5093903;28;20531;-73
2021/06/14 04:11:28;;;;;;;4.80;4.30;;;;;;;;;;5093542;28;20074;-74
2021/06/14 04:13:54;;;;;;;7.38;3.92;;;;;;;;;;5093839;28;20066;-73
2021/06/14 04:16:20;;;;;;;7.72;5.07;;;;;;;;;;5093582;28;20099;-75
2021/06/14 04:18:46;;;;;;;5.93;4.15;;;;;;;;;;5093456;28;20027;-74
2021/06/14 04:21:13;;;;;;;5.00;3.83;;;;;;;;;;5093849;28;20024;-75
2021/06/14 04:23:40;;;;;;;6.90;4.75;;;;;;;;;;5094262;28;20039;-72
2021/06/14 04:26:06;;;;;;;6.00;3.83;;;;;;;;;;5093444;28;20408;-74
2021/06/14 04:28:32;;;;;;;9.25;4.85;;;;;;;;;;5093801;28;20458;-74
2021/06/14 04:30:58;;;;;;;13.65;5.13;;;;;;;;;;5095961;28;20035;-74
2021/06/14 04:33:24;;;;;;;7.47;4.97;;;;;;;;;;5097502;28;20501;-74
2021/06/14 04:35:51;;;;;;;7.20;4.65;;;;;;;;;;5097367;28;20492;-74
2021/06/14 04:38:17;;;;;;;5.80;4.20;;;;;;;;;;5097190;28;20456;-74
2021/06/14 04:40:43;;;;;;;10.23;4.68;;;;;;;;;;5096662;28;20024;-74
2021/06/14 04:43:09;;;;;;;12.27;5.47;;;;;;;;;;5096889;28;20478;-73
2021/06/14 04:45:35;;;;;;;6.65;3.83;;;;;;;;;;5096880;28;20426;-74
2021/06/14 04:48:01;;;;;;;8.23;4.78;;;;;;;;;;5097311;28;20028;-73
2021/06/14 04:50:28;;;;;;;11.88;4.40;;;;;;;;;;5096976;28;20079;-74
2021/06/14 04:52:54;;;;;;;6.55;4.28;;;;;;;;;;5096478;28;20032;-74
2021/06/14 04:55:20;;;;;;;4.93;4.35;;;;;;;;;;5096580;28;20377;-73
2021/06/14 04:57:46;;;;;;;14.27;4.30;;;;;;;;;;5096637;28;20032;-75
2021/06/14 05:00:13;;;;;;;6.25;4.05;;;;;;;;;;5095246;28;20024;-73
2021/06/14 05:02:39;;;;;;;6.55;4.38;;;;;;;;;;5096164;28;20075;-74
2021/06/14 05:05:05;;;;;;;15.95;4.70;;;;;;;;;;5096205;28;20454;-73
2021/06/14 05:07:31;;;;;;;19.15;6.18;;;;;;;;;;5096053;28;20541;-74
2021/06/14 05:09:58;;;;;;;17.17;7.43;;;;;;;;;;5095733;28;20032;-73
2021/06/14 05:12:24;;;;;;;45.00;16.38;;;;;;;;;;5096433;28;20153;-73
2021/06/14 05:14:50;;;;;;;38.80;13.85;;;;;;;;;;5095608;28;20438;-76
2021/06/14 05:17:17;;;;;;;28.30;13.73;;;;;;;;;;5096242;28;20024;-72
2021/06/14 05:19:44;;;;;;;29.33;13.15;;;;;;;;;;5096329;28;20029;-73
2021/06/14 05:22:10;;;;;;;32.42;11.60;;;;;;;;;;5096024;28;20038;-73
2021/06/14 05:24:36;;;;;;;21.83;8.60;;;;;;;;;;5095547;28;20079;-73
2021/06/14 05:27:03;;;;;;;29.30;12.23;;;;;;;;;;5095473;28;20074;-74
2021/06/14 05:29:29;;;;;;;35.60;14.13;;;;;;;;;;5095673;28;20412;-72
2021/06/14 05:31:55;;;;;;;26.63;10.90;;;;;;;;;;5096412;28;20024;-73
2021/06/14 05:34:22;;;;;;;30.80;11.50;;;;;;;;;;5095697;28;20051;-73
2021/06/14 05:36:48;;;;;;;16.77;7.82;;;;;;;;;;5095493;28;20473;-73
2021/06/14 05:39:14;;;;;;;14.73;7.80;;;;;;;;;;5095312;28;20024;-73
2021/06/14 05:41:40;;;;;;;18.90;9.48;;;;;;;;;;5095312;28;20024;-73
2021/06/14 05:44:06;;;;;;;14.77;8.60;;;;;;;;;;5095479;28;20028;-73
2021/06/14 05:46:32;;;;;;;20.92;8.45;;;;;;;;;;5096345;28;20103;-72
2021/06/14 05:48:58;;;;;;;19.50;8.30;;;;;;;;;;5097043;28;20024;-74
2021/06/14 05:51:24;;;;;;;15.75;6.93;;;;;;;;;;5096913;28;20055;-77
2021/06/14 05:53:50;;;;;;;17.30;7.95;;;;;;;;;;5096203;28;20031;-73
2021/06/14 05:56:16;;;;;;;15.73;8.05;;;;;;;;;;5096359;28;20035;-74
2021/06/14 05:58:43;;;;;;;15.63;7.15;;;;;;;;;;5095904;28;20123;-73
2021/06/14 06:01:09;;;;;;;11.45;7.45;;;;;;;;;;5096539;28;20047;-73
2021/06/14 06:03:35;;;;;;;17.10;6.68;;;;;;;;;;5096267;28;20043;-74
2021/06/14 06:06:01;;;;;;;11.27;6.22;;;;;;;;;;5096660;28;20319;-72
2021/06/14 06:08:27;;;;;;;12.95;6.10;;;;;;;;;;5096020;28;20017;-72
2021/06/14 06:10:53;;;;;;;15.35;7.68;;;;;;;;;;5096298;28;20023;-74
2021/06/14 06:13:19;;;;;;;10.68;6.35;;;;;;;;;;5096816;28;20032;-75
2021/06/14 06:15:45;;;;;;;12.23;6.47;;;;;;;;;;5096197;28;20035;-73
2021/06/14 06:18:11;;;;;;;9.00;5.85;;;;;;;;;;5095863;28;20543;-75
2021/06/14 06:20:37;;;;;;;8.50;5.15;;;;;;;;;;5113950;28;20057;-74
2021/06/14 06:23:04;;;;;;;15.50;6.82;;;;;;;;;;5115601;28;20377;-75
2021/06/14 06:25:30;;;;;;;8.70;5.40;;;;;;;;;;5116612;28;20024;-72
2021/06/14 06:27:56;;;;;;;11.32;5.88;;;;;;;;;;5115982;28;20027;-74
2021/06/14 06:30:24;;;;;;;8.50;5.55;;;;;;;;;;5116348;28;20381;-73
2021/06/14 06:32:50;;;;;;;13.70;5.82;;;;;;;;;;5116634;28;20055;-73
2021/06/14 06:35:16;;;;;;;15.07;5.95;;;;;;;;;;5116853;28;20024;-74
2021/06/14 06:37:42;;;;;;;11.57;5.88;;;;;;;;;;5117059;28;20048;-73
2021/06/14 06:40:09;;;;;;;18.45;6.03;;;;;;;;;;5116794;28;20038;-74
2021/06/14 06:42:35;;;;;;;10.18;5.25;;;;;;;;;;5116297;28;20035;-74
2021/06/14 06:45:01;;;;;;;7.78;5.65;;;;;;;;;;5116182;28;20035;-73
2021/06/14 06:47:27;;;;;;;9.93;5.80;;;;;;;;;;5116526;28;20037;-73
2021/06/14 06:49:53;;;;;;;12.15;5.07;;;;;;;;;;5117997;28;20469;-76
2021/06/14 06:52:19;;;;;;;9.05;4.68;;;;;;;;;;5117515;28;20051;-74
2021/06/14 06:54:45;;;;;;;11.32;5.38;;;;;;;;;;5116778;28;20028;-73
2021/06/14 06:57:11;;;;;;;9.38;5.55;;;;;;;;;;5117498;28;20103;-74
2021/06/14 06:59:37;;;;;;;7.65;5.63;;;;;;;;;;5117596;28;20031;-74
2021/06/14 07:02:03;;;;;;;8.32;5.35;;;;;;;;;;5116775;28;20040;-76
2021/06/14 07:04:30;;;;;;;10.82;4.95;;;;;;;;;;5115765;28;20070;-70
2021/06/14 07:06:56;;;;;;;9.98;4.80;;;;;;;;;;5114500;28;20030;-70
2021/06/14 07:09:22;;;;;;;11.80;4.22;;;;;;;;;;5114417;28;20038;-69
2021/06/14 07:11:48;;;;;;;9.50;5.22;;;;;;;;;;5115393;28;20042;-69
2021/06/14 07:14:14;;;;;;;12.32;4.63;;;;;;;;;;5114527;28;20043;-69
2021/06/14 07:16:40;;;;;;;15.50;5.22;;;;;;;;;;5114516;28;20023;-70
2021/06/14 07:19:06;;;;;;;8.10;4.47;;;;;;;;;;5114587;28;20098;-68
2021/06/14 07:21:32;;;;;;;9.57;4.95;;;;;;;;;;5115907;28;20114;-69
2021/06/14 07:23:59;;;;;;;8.65;4.70;;;;;;;;;;5115950;28;20358;-69
2021/06/14 07:26:25;;;;;;;6.30;4.38;;;;;;;;;;5115281;28;20030;-70
2021/06/14 07:28:51;;;;;;;8.35;4.45;;;;;;;;;;5116379;28;20028;-68
2021/06/14 07:31:17;;;;;;;8.82;5.07;;;;;;;;;;5115642;28;20024;-69
2021/06/14 07:33:44;;;;;;;6.95;4.30;;;;;;;;;;5116244;28;20422;-70
2021/06/14 07:36:10;;;;;;;6.45;4.70;;;;;;;;;;5115830;28;20036;-70
2021/06/14 07:38:36;;;;;;;8.77;5.18;;;;;;;;;;5115583;28;20108;-69
2021/06/14 07:41:03;;;;;;;5.82;3.78;;;;;;;;;;5115300;28;20078;-70
2021/06/14 07:43:29;;;;;;;6.22;4.65;;;;;;;;;;5116102;28;20039;-69
2021/06/14 07:45:55;;;;;;;7.65;4.38;;;;;;;;;;5115753;28;20055;-69
2021/06/14 07:48:22;;;;;;;7.32;4.22;;;;;;;;;;5116194;28;20024;-69
2021/06/14 07:50:48;;;;;;;8.90;5.03;;;;;;;;;;5115181;28;20043;-70
2021/06/14 07:53:14;;;;;;;7.80;4.15;;;;;;;;;;5115474;28;20095;-73
2021/06/14 07:55:40;;;;;;;4.65;4.13;;;;;;;;;;5115783;28;20027;-70
2021/06/14 07:58:06;;;;;;;5.47;3.53;;;;;;;;;;5114993;28;20019;-70
2021/06/14 08:00:33;;;;;;;9.20;4.07;;;;;;;;;;5114917;28;20023;-70
2021/06/14 08:02:59;;;;;;;5.63;3.75;;;;;;;;;;5114622;28;20058;-69
2021/06/14 08:05:25;;;;;;;5.03;3.83;;;;;;;;;;5118864;28;20072;-69
2021/06/14 08:07:51;;;;;;;5.45;4.10;;;;;;;;;;5118547;28;20020;-69
2021/06/14 08:10:18;;;;;;;7.88;4.40;;;;;;;;;;5118934;28;20023;-70
2021/06/14 08:12:46;;;;;;;6.97;3.95;;;;;;;;;;5118072;28;20027;-69
2021/06/14 08:15:13;;;;;;;10.90;4.32;;;;;;;;;;5118381;28;20020;-69
2021/06/14 08:17:39;;;;;;;4.18;3.47;;;;;;;;;;5118216;28;20498;-71
2021/06/14 08:20:17;;;;;;;6.35;4.15;;;;;;;;;;5118984;28;20034;-70
2021/06/14 08:25:29;;;;;;;7.07;4.00;;;;;;;;;;5103884;28;20048;-69
2021/06/14 08:27:55;;;;;;;5.05;3.42;;;;;;;;;;5118461;28;20046;-70
2021/06/14 08:30:21;;;;;;;5.35;3.72;;;;;;;;;;5118373;28;20024;-70
2021/06/14 08:32:48;;;;;;;7.47;4.35;;;;;;;;;;5118733;28;20038;-68
2021/06/14 08:35:16;;;;;;;5.78;3.65;;;;;;;;;;5118634;28;20024;-68
2021/06/14 08:37:42;;;;;;;9.82;3.70;;;;;;;;;;5117843;28;20024;-67
2021/06/14 08:40:10;;;;;;;6.60;3.60;;;;;;;;;;5118508;28;20023;-71
2021/06/14 08:42:36;;;;;;;4.65;3.38;;;;;;;;;;5118467;28;20047;-72
2021/06/14 08:45:02;;;;;;;13.65;4.70;;;;;;;;;;5118245;28;20114;-69
2021/06/14 08:47:29;;;;;;;7.93;3.97;;;;;;;;;;5118615;28;20028;-69
2021/06/14 08:49:55;;;;;;;13.35;3.78;;;;;;;;;;5117589;28;20032;-69
2021/06/14 08:52:21;;;;;;;4.68;3.65;;;;;;;;;;5116675;28;20048;-68
2021/06/14 08:54:47;;;;;;;9.45;3.88;;;;;;;;;;5117736;28;20054;-69
2021/06/14 08:57:13;;;;;;;6.85;3.42;;;;;;;;;;5117292;28;20028;-70
2021/06/14 08:59:39;;;;;;;6.60;3.88;;;;;;;;;;5117593;28;20464;-70
2021/06/14 09:02:05;;;;;;;12.02;5.25;;;;;;;;;;5116637;28;20838;-70
2021/06/14 09:04:32;;;;;;;6.75;4.18;;;;;;;;;;5117474;28;20046;-69
2021/06/14 09:06:59;;;;;;;6.10;3.85;;;;;;;;;;5116762;28;20022;-72
2021/06/14 09:09:27;;;;;;;8.95;4.65;;;;;;;;;;5117506;28;20077;-68
2021/06/14 09:11:54;;;;;;;9.55;4.35;;;;;;;;;;5116785;28;20035;-69
2021/06/14 09:14:21;;;;;;;8.57;4.55;;;;;;;;;;5117417;28;20106;-70
2021/06/14 09:16:47;;;;;;;5.40;3.65;;;;;;;;;;5116305;28;20161;-70
2021/06/14 09:19:29;;;;;;;9.70;3.90;;;;;;;;;;5117317;28;20574;-70
2021/06/14 09:21:56;;;;;;;5.55;3.75;;;;;;;;;;5116958;28;20536;-67
2021/06/14 09:24:22;;;;;;;6.53;4.82;;;;;;;;;;5116745;28;20031;-70
2021/06/14 09:26:48;;;;;;;8.25;4.95;;;;;;;;;;5116601;28;20084;-70
2021/06/14 09:29:15;;;;;;;8.93;4.97;;;;;;;;;;5116661;28;20114;-69
2021/06/14 09:31:44;;;;;;;6.13;4.07;;;;;;;;;;5116870;28;20031;-69
2021/06/14 09:34:10;;;;;;;10.90;4.97;;;;;;;;;;5116751;28;20111;-70
2021/06/14 09:36:36;;;;;;;9.10;5.03;;;;;;;;;;5116710;28;20035;-70
2021/06/14 09:39:08;;;;;;;11.00;4.82;;;;;;;;;;5116875;28;20522;-70
2021/06/14 09:41:37;;;;;;;11.02;4.35;;;;;;;;;;5115700;28;20055;-69
2021/06/14 09:44:04;;;;;;;10.25;5.25;;;;;;;;;;5115760;28;20063;-70
2021/06/14 09:46:32;;;;;;;9.32;4.55;;;;;;;;;;5115530;28;20106;-69
2021/06/14 09:49:00;;;;;;;11.18;5.63;;;;;;;;;;5114482;28;20016;-70
2021/06/14 09:51:26;;;;;;;6.60;5.07;;;;;;;;;;5114876;28;20048;-69
2021/06/14 09:53:53;;;;;;;11.25;5.93;;;;;;;;;;5115113;28;20481;-70
2021/06/14 09:56:21;;;;;;;8.95;6.28;;;;;;;;;;5116413;28;20027;-70
2021/06/14 09:58:48;;;;;;;9.23;5.93;;;;;;;;;;5115817;28;20064;-71
2021/06/14 10:01:14;;;;;;;10.20;4.68;;;;;;;;;;5115703;28;20039;-70
2021/06/14 10:03:44;;;;;;;7.63;5.10;;;;;;;;;;5115401;28;20028;-70
2021/06/14 10:06:10;;;;;;;9.40;5.80;;;;;;;;;;5116194;28;20019;-70
2021/06/14 10:08:36;;;;;;;22.02;6.43;;;;;;;;;;5114883;28;20028;-71
2021/06/14 10:11:06;;;;;;;10.23;5.47;;;;;;;;;;5114334;28;20457;-70
2021/06/14 10:13:33;;;;;;;8.90;5.72;;;;;;;;;;5114821;28;20055;-70
2021/06/14 10:16:00;;;;;;;7.47;6.22;;;;;;;;;;5114078;28;20110;-70
2021/06/14 10:18:34;;;;;;;6.78;5.07;;;;;;;;;;5114586;28;20024;-70
2021/06/14 10:21:01;;;;;;;12.07;5.75;;;;;;;;;;5114411;28;20016;-71
2021/06/14 10:23:27;;;;;;;5.45;4.82;;;;;;;;;;5114482;28;20040;-70
2021/06/14 10:25:57;;;;;;;9.23;7.32;;;;;;;;;;5114200;28;20016;-70
2021/06/14 10:28:23;;;;;;;7.07;6.20;;;;;;;;;;5114433;28;20415;-71
2021/06/14 10:30:50;;;;;;;9.25;6.80;;;;;;;;;;5114222;28;20032;-70
2021/06/14 10:33:16;;;;;;;9.30;6.32;;;;;;;;;;5114649;28;20111;-70
2021/06/14 10:35:42;;;;;;;10.85;7.57;;;;;;;;;;5114455;28;20024;-69
2021/06/14 10:38:08;;;;;;;21.85;8.07;;;;;;;;;;5113761;28;20024;-70
2021/06/14 10:40:35;;;;;;;11.20;8.43;;;;;;;;;;5114509;28;20031;-70
2021/06/14 10:43:01;;;;;;;11.15;8.77;;;;;;;;;;5113833;28;20034;-70
2021/06/14 10:45:28;;;;;;;15.18;8.05;;;;;;;;;;5114108;28;20032;-70
2021/06/14 10:47:54;;;;;;;11.90;8.50;;;;;;;;;;5113940;28;20461;-70
2021/06/14 10:50:22;;;;;;;9.75;7.88;;;;;;;;;;5114359;28;20054;-70
2021/06/14 10:52:48;;;;;;;10.77;7.57;;;;;;;;;;5114072;28;20360;-70
2021/06/14 10:55:16;;;;;;;11.88;7.10;;;;;;;;;;5114168;28;20104;-70
2021/06/14 10:57:42;;;;;;;8.32;6.13;;;;;;;;;;5096325;28;20023;-70
2021/06/14 11:00:19;;;;;;;13.32;8.30;;;;;;;;;;5113868;28;20027;-71
2021/06/14 11:03:05;;;;;;;10.25;7.65;;;;;;;;;;5113523;28;20476;-71
2021/06/14 11:05:34;;;;;;;7.28;6.28;;;;;;;;;;5099023;28;20020;-70
2021/06/14 11:08:20;;;;;;;9.45;6.93;;;;;;;;;;5113441;28;20106;-71
2021/06/14 11:10:50;;;;;;;9.95;6.72;;;;;;;;;;5098624;28;20372;-70
2021/06/14 11:13:16;;;;;;;9.40;6.18;;;;;;;;;;5114295;28;20019;-70
2021/06/14 11:15:43;;;;;;;7.82;6.10;;;;;;;;;;5113700;28;20020;-70
2021/06/14 11:18:19;;;;;;;8.23;6.40;;;;;;;;;;5113541;28;20023;-71
2021/06/14 11:20:45;;;;;;;15.27;6.30;;;;;;;;;;5113504;28;20020;-69
2021/06/14 11:23:18;;;;;;;6.45;5.30;;;;;;;;;;5113060;28;20487;-69
2021/06/14 11:25:44;;;;;;;9.45;5.95;;;;;;;;;;5113192;28;20032;-67
2021/06/14 11:28:10;;;;;;;8.90;6.15;;;;;;;;;;5113855;28;20043;-69
2021/06/14 11:30:38;;;;;;;9.05;6.25;;;;;;;;;;5113456;28;20028;-70
2021/06/14 11:33:04;;;;;;;12.02;6.25;;;;;;;;;;5113327;28;20500;-69
2021/06/14 11:35:32;;;;;;;12.52;6.00;;;;;;;;;;5113866;28;20043;-68
2021/06/14 11:37:59;;;;;;;12.18;5.15;;;;;;;;;;5114002;28;20031;-68
2021/06/14 11:40:34;;;;;;;10.05;6.15;;;;;;;;;;5116891;28;20118;-70
2021/06/14 11:43:06;;;;;;;6.78;5.38;;;;;;;;;;5117267;28;20477;-68
2021/06/14 11:45:33;;;;;;;5.70;5.18;;;;;;;;;;5117447;28;20027;-68
2021/06/14 11:48:00;;;;;;;8.45;5.15;;;;;;;;;;5117287;28;20016;-68
2021/06/14 11:50:26;;;;;;;9.73;5.85;;;;;;;;;;5114899;28;20131;-68
2021/06/14 11:53:00;;;;;;;6.53;5.80;;;;;;;;;;5105837;28;20527;-68
2021/06/14 11:55:27;;;;;;;8.90;6.03;;;;;;;;;;5105080;28;20355;-68
2021/06/14 11:57:55;;;;;;;8.63;5.03;;;;;;;;;;5105457;28;20057;-68
2021/06/14 12:00:37;;;;;;;9.65;5.85;;;;;;;;;;5106753;28;20022;-68
2021/06/14 12:03:20;;;;;;;8.10;5.20;;;;;;;;;;5104381;28;20358;-68
2021/06/14 12:05:46;;;;;;;6.95;5.35;;;;;;;;;;5104965;28;20054;-69
2021/06/14 12:08:15;;;;;;;6.90;4.88;;;;;;;;;;5105215;28;20020;-68
2021/06/14 12:10:41;;;;;;;11.40;5.07;;;;;;;;;;5105919;28;20016;-68
2021/06/14 12:13:09;;;;;;;7.68;5.18;;;;;;;;;;5104769;28;20481;-68
2021/06/14 12:15:35;;;;;;;8.52;4.97;;;;;;;;;;5104600;28;20072;-69
2021/06/14 12:18:02;;;;;;;6.88;5.90;;;;;;;;;;5103888;28;20036;-69
2021/06/14 12:20:29;;;;;;;7.38;4.75;;;;;;;;;;5104195;28;20347;-69
2021/06/14 12:23:04;;;;;;;7.50;5.18;;;;;;;;;;5103625;28;20094;-69
2021/06/14 12:25:31;;;;;;;6.38;5.25;;;;;;;;;;5104997;28;20024;-69
2021/06/14 12:27:59;;;;;;;7.25;5.00;;;;;;;;;;5104053;28;20020;-69
2021/06/14 12:30:26;;;;;;;6.00;5.05;;;;;;;;;;5104569;28;20024;-69
2021/06/14 12:32:52;;;;;;;8.85;6.15;;;;;;;;;;5104374;28;20149;-69
2021/06/14 12:35:18;;;;;;;7.50;4.93;;;;;;;;;;5105742;28;20508;-70
2021/06/14 12:37:44;;;;;;;6.38;4.25;;;;;;;;;;5104273;28;20028;-70
2021/06/14 12:40:11;;;;;;;5.30;4.80;;;;;;;;;;5114917;28;20023;-70
2021/06/14 12:42:37;;;;;;;5.38;3.85;;;;;;;;;;5104539;28;20036;-70
2021/06/14 12:45:05;;;;;;;7.75;4.60;;;;;;;;;;5104380;28;20030;-69
2021/06/14 12:47:31;;;;;;;6.78;4.25;;;;;;;;;;5105850;28;20020;-70
2021/06/14 12:49:58;;;;;;;9.63;4.95;;;;;;;;;;5103474;28;20077;-70
2021/06/14 12:52:24;;;;;;;5.43;4.03;;;;;;;;;;5109239;28;20135;-69
2021/06/14 12:54:51;;;;;;;8.15;5.40;;;;;;;;;;5104406;28;20103;-71
2021/06/14 12:57:17;;;;;;;6.18;5.07;;;;;;;;;;5095558;28;20024;-70
2021/06/14 12:59:44;;;;;;;4.55;4.15;;;;;;;;;;5095785;28;20107;-69
2021/06/14 13:02:14;;;;;;;8.27;5.30;;;;;;;;;;5095408;28;20032;-70
2021/06/14 13:04:40;;;;;;;9.45;4.80;;;;;;;;;;5095659;28;20029;-70
2021/06/14 13:07:21;;;;;;;8.13;4.93;;;;;;;;;;5095942;28;20046;-67
2021/06/14 13:09:49;;;;;;;11.20;5.60;;;;;;;;;;5095745;28;20031;-67
2021/06/14 13:12:25;;;;;;;5.88;4.75;;;;;;;;;;5095157;28;20505;-67
2021/06/14 13:14:51;;;;;;;7.18;5.05;;;;;;;;;;5095382;28;20032;-67
2021/06/14 13:17:25;;;;;;;6.50;4.07;;;;;;;;;;5095428;28;20035;-68
2021/06/14 13:19:52;;;;;;;8.07;4.90;;;;;;;;;;5095805;28;20492;-68
2021/06/14 13:22:21;;;;;;;5.25;4.70;;;;;;;;;;5095771;28;20493;-68
2021/06/14 13:24:48;;;;;;;12.70;5.43;;;;;;;;;;5095216;28;20024;-68
2021/06/14 13:27:14;;;;;;;9.57;4.93;;;;;;;;;;5094482;28;20024;-70
2021/06/14 13:29:41;;;;;;;5.45;4.93;;;;;;;;;;5094012;28;20042;-70
2021/06/14 13:32:11;;;;;;;9.70;5.30;;;;;;;;;;5100407;28;20023;-70
2021/06/14 13:34:37;;;;;;;6.57;5.13;;;;;;;;;;5114935;28;20031;-70
2021/06/14 13:37:04;;;;;;;7.95;4.43;;;;;;;;;;5116195;28;20024;-70
2021/06/14 13:39:34;;;;;;;6.93;4.72;;;;;;;;;;5111841;28;20020;-70
2021/06/14 13:42:01;;;;;;;6.70;4.80;;;;;;;;;;5103957;28;20473;-71
2021/06/14 13:44:27;;;;;;;6.82;5.57;;;;;;;;;;5095275;28;20020;-71
2021/06/14 13:46:53;;;;;;;6.63;4.82;;;;;;;;;;5094598;28;20107;-70
2021/06/14 13:49:32;;;;;;;5.10;4.60;;;;;;;;;;5094421;28;20063;-70
2021/06/14 13:51:59;;;;;;;4.97;4.47;;;;;;;;;;5108897;28;20056;-71
2021/06/14 13:54:25;;;;;;;13.82;5.45;;;;;;;;;;5114851;28;20032;-70
2021/06/14 13:56:51;;;;;;;4.07;3.70;;;;;;;;;;5114678;28;20030;-70
2021/06/14 13:59:19;;;;;;;6.93;4.47;;;;;;;;;;5114867;28;20049;-68
2021/06/14 14:01:45;;;;;;;5.20;4.30;;;;;;;;;;5110565;28;20181;-69
2021/06/14 14:04:15;;;;;;;7.80;4.88;;;;;;;;;;5114314;28;20034;-69
2021/06/14 14:06:42;;;;;;;4.30;3.70;;;;;;;;;;5114312;28;20152;-70
2021/06/14 14:09:08;;;;;;;7.90;5.25;;;;;;;;;;5114464;28;20031;-70
2021/06/14 14:11:34;;;;;;;6.95;4.10;;;;;;;;;;5101978;28;20032;-68
2021/06/14 14:14:01;;;;;;;17.60;5.07;;;;;;;;;;5093168;28;20028;-70
2021/06/14 14:16:27;;;;;;;5.35;3.70;;;;;;;;;;5091400;28;20350;-69
2021/06/14 14:18:54;;;;;;;4.72;3.97;;;;;;;;;;5092042;28;20031;-68
2021/06/14 14:21:20;;;;;;;13.40;4.57;;;;;;;;;;5093549;28;20028;-68
2021/06/14 14:23:46;;;;;;;19.10;4.78;;;;;;;;;;5093587;28;20371;-69
2021/06/14 14:26:12;;;;;;;6.32;4.28;;;;;;;;;;5094264;28;20058;-68
2021/06/14 14:28:38;;;;;;;10.73;4.07;;;;;;;;;;5093739;28;20111;-70
2021/06/14 14:31:06;;;;;;;21.83;4.35;;;;;;;;;;5095060;28;20064;-69
2021/06/14 14:33:32;;;;;;;14.45;4.65;;;;;;;;;;5094993;28;20027;-69
2021/06/14 14:36:03;;;;;;;7.03;4.63;;;;;;;;;;5095146;28;20024;-69
2021/06/14 14:38:30;;;;;;;6.30;4.38;;;;;;;;;;5095206;28;20076;-69
2021/06/14 14:40:56;;;;;;;18.05;4.65;;;;;;;;;;5095140;28;20924;-68
2021/06/14 14:43:22;;;;;;;9.18;4.30;;;;;;;;;;5095005;28;20039;-70